Archival Weather

Norman Y Mineta San Jose Intl

San Jose, California (KSJC)

Report from: Saturday, September 30, 2023 1:53 AM PDT
Current time: Thursday, July 18, 2024 8:16 PM PDT

Current weather – Weather history – Daily summaries
Weather forecast

Present weatherLight rain
Temperature17.2°C (63.0°F)
Dew point13.9°C (57.0°F)
Winds 4 kts (2.1 m/s, 4.6 mph) South-Southeast (150°)
Visibility9 mi. (14.5 km)
Clouds Few clouds 2,800 ft. (853 m)
Ceiling: Broken clouds 3,400 ft. (1,036 m)
Overcast 4,300 ft. (1,311 m)
Altimeter29.80 in.Hg (1009 mB)
PrecipitiationTrace
Precip. events Rain ended 8:01 AM
Rain began 8:47 AM
Precip last 3 hoursTrace
Relative humidity81 %
Density altitude623 ft. (190 m)
Sea-level pressure100.9 kPa (1009 mB, 29.80 in.Hg)
Remarks Fully automated report
Automated weather observing station with precipitation discriminator
Pressure falling more slowly
Flight conditions Visual Meteorological Conditions
Raw dataKSJC 300853Z AUTO 15004KT 9SM -RA FEW028 BKN034 OVC043 17/14 A2980 RMK AO2 RAE01B47 SLP090 P0000 60000 T01720139 56006
An error has occurred. This application may no longer respond until reloaded. Reload 🗙